sensor_id;sensor_type;location;lat;lon;timestamp;temperature;humidity
37356;DHT22;48747;50.250;18.848;2022-08-19T00:00:01;23.50;99.90
37356;DHT22;48747;50.250;18.848;2022-08-19T00:02:07;23.40;99.90
37356;DHT22;48747;50.250;18.848;2022-08-19T00:04:13;23.40;99.90
37356;DHT22;48747;50.250;18.848;2022-08-19T00:06:18;23.40;99.90
37356;DHT22;48747;50.250;18.848;2022-08-19T00:08:23;23.40;99.90
37356;DHT22;48747;50.250;18.848;2022-08-19T00:10:29;23.30;99.90
37356;DHT22;48747;50.250;18.848;2022-08-19T00:12:33;23.40;99.90
37356;DHT22;48747;50.250;18.848;2022-08-19T00:14:40;23.30;99.90
37356;DHT22;48747;50.250;18.848;2022-08-19T00:16:45;23.30;99.90
37356;DHT22;48747;50.250;18.848;2022-08-19T00:18:49;23.30;99.90
37356;DHT22;48747;50.250;18.848;2022-08-19T00:21:00;23.20;99.90
37356;DHT22;48747;50.250;18.848;2022-08-19T00:23:00;23.30;99.90
37356;DHT22;48747;50.250;18.848;2022-08-19T00:25:08;23.30;99.90
37356;DHT22;48747;50.250;18.848;2022-08-19T00:27:12;23.20;99.90
37356;DHT22;48747;50.250;18.848;2022-08-19T00:29:19;23.20;99.90
37356;DHT22;48747;50.250;18.848;2022-08-19T00:31:22;23.20;99.90
37356;DHT22;48747;50.250;18.848;2022-08-19T00:33:30;23.20;99.90
37356;DHT22;48747;50.250;18.848;2022-08-19T00:35:33;23.10;99.90
37356;DHT22;48747;50.250;18.848;2022-08-19T00:37:38;23.10;99.90
37356;DHT22;48747;50.250;18.848;2022-08-19T00:39:43;23.10;99.90
37356;DHT22;48747;50.250;18.848;2022-08-19T00:41:47;23.10;99.90
37356;DHT22;48747;50.250;18.848;2022-08-19T00:43:59;23.00;99.90
37356;DHT22;48747;50.250;18.848;2022-08-19T00:46:02;23.00;99.90
37356;DHT22;48747;50.250;18.848;2022-08-19T00:48:06;23.00;99.90
37356;DHT22;48747;50.250;18.848;2022-08-19T00:50:11;23.00;99.90
37356;DHT22;48747;50.250;18.848;2022-08-19T00:52:20;23.00;99.90
37356;DHT22;48747;50.250;18.848;2022-08-19T00:54:22;23.00;99.90
37356;DHT22;48747;50.250;18.848;2022-08-19T00:56:25;23.00;99.90
37356;DHT22;48747;50.250;18.848;2022-08-19T00:58:31;22.90;99.90
37356;DHT22;48747;50.250;18.848;2022-08-19T01:00:35;22.90;99.90
37356;DHT22;48747;50.250;18.848;2022-08-19T01:02:44;22.90;99.90
37356;DHT22;48747;50.250;18.848;2022-08-19T01:04:44;22.90;99.90
37356;DHT22;48747;50.250;18.848;2022-08-19T01:06:49;22.90;99.90
37356;DHT22;48747;50.250;18.848;2022-08-19T01:08:53;22.80;99.90
37356;DHT22;48747;50.250;18.848;2022-08-19T01:10:58;22.80;99.90
37356;DHT22;48747;50.250;18.848;2022-08-19T01:13:05;22.80;99.90
37356;DHT22;48747;50.250;18.848;2022-08-19T01:15:11;22.70;99.90
37356;DHT22;48747;50.250;18.848;2022-08-19T01:17:15;22.70;99.90
37356;DHT22;48747;50.250;18.848;2022-08-19T01:19:29;22.80;99.90
37356;DHT22;48747;50.250;18.848;2022-08-19T01:21:42;22.80;99.90
37356;DHT22;48747;50.250;18.848;2022-08-19T01:23:43;22.80;99.90
37356;DHT22;48747;50.250;18.848;2022-08-19T01:25:51;22.70;99.90
37356;DHT22;48747;50.250;18.848;2022-08-19T01:27:53;22.70;99.90
37356;DHT22;48747;50.250;18.848;2022-08-19T01:29:57;22.70;99.90
37356;DHT22;48747;50.250;18.848;2022-08-19T01:32:10;22.70;99.90
37356;DHT22;48747;50.250;18.848;2022-08-19T01:34:06;22.70;99.90
37356;DHT22;48747;50.250;18.848;2022-08-19T01:36:12;22.70;99.90
37356;DHT22;48747;50.250;18.848;2022-08-19T01:38:24;22.50;99.90
37356;DHT22;48747;50.250;18.848;2022-08-19T01:40:35;22.60;99.90
37356;DHT22;48747;50.250;18.848;2022-08-19T01:42:35;22.50;99.90
37356;DHT22;48747;50.250;18.848;2022-08-19T01:44:39;22.60;99.90
37356;DHT22;48747;50.250;18.848;2022-08-19T01:46:52;22.60;99.90
37356;DHT22;48747;50.250;18.848;2022-08-19T01:48:51;22.60;99.90
37356;DHT22;48747;50.250;18.848;2022-08-19T01:50:55;22.50;99.90
37356;DHT22;48747;50.250;18.848;2022-08-19T01:53:04;22.50;99.90
37356;DHT22;48747;50.250;18.848;2022-08-19T01:55:06;22.50;99.90
37356;DHT22;48747;50.250;18.848;2022-08-19T01:57:13;22.50;99.90
37356;DHT22;48747;50.250;18.848;2022-08-19T01:59:19;22.50;99.90
37356;DHT22;48747;50.250;18.848;2022-08-19T02:01:23;22.40;99.90
37356;DHT22;48747;50.250;18.848;2022-08-19T02:03:27;22.40;99.90
37356;DHT22;48747;50.250;18.848;2022-08-19T02:05:32;22.40;99.90
37356;DHT22;48747;50.250;18.848;2022-08-19T02:07:36;22.40;99.90
37356;DHT22;48747;50.250;18.848;2022-08-19T02:09:41;22.20;99.90
37356;DHT22;48747;50.250;18.848;2022-08-19T02:11:44;22.30;99.90
37356;DHT22;48747;50.250;18.848;2022-08-19T02:13:53;22.20;99.90
37356;DHT22;48747;50.250;18.848;2022-08-19T02:15:52;22.20;99.90
37356;DHT22;48747;50.250;18.848;2022-08-19T02:17:55;22.20;99.90
37356;DHT22;48747;50.250;18.848;2022-08-19T02:19:58;22.20;99.90
37356;DHT22;48747;50.250;18.848;2022-08-19T02:22:02;22.20;99.90
37356;DHT22;48747;50.250;18.848;2022-08-19T02:24:07;22.20;99.90
37356;DHT22;48747;50.250;18.848;2022-08-19T02:26:10;22.20;99.90
37356;DHT22;48747;50.250;18.848;2022-08-19T02:28:17;22.20;99.90
37356;DHT22;48747;50.250;18.848;2022-08-19T02:30:21;22.10;99.90
37356;DHT22;48747;50.250;18.848;2022-08-19T02:32:25;22.20;99.90
37356;DHT22;48747;50.250;18.848;2022-08-19T02:34:29;22.10;99.90
37356;DHT22;48747;50.250;18.848;2022-08-19T02:36:32;22.10;99.90
37356;DHT22;48747;50.250;18.848;2022-08-19T02:38:44;22.10;99.90
37356;DHT22;48747;50.250;18.848;2022-08-19T02:40:49;22.10;99.90
37356;DHT22;48747;50.250;18.848;2022-08-19T02:42:54;22.20;99.90
37356;DHT22;48747;50.250;18.848;2022-08-19T02:44:57;22.10;99.90
37356;DHT22;48747;50.250;18.848;2022-08-19T02:47:02;22.10;99.90
37356;DHT22;48747;50.250;18.848;2022-08-19T02:49:07;22.10;99.90
37356;DHT22;48747;50.250;18.848;2022-08-19T02:51:15;22.10;99.90
37356;DHT22;48747;50.250;18.848;2022-08-19T02:53:18;22.10;99.90
37356;DHT22;48747;50.250;18.848;2022-08-19T02:55:23;22.10;99.90
37356;DHT22;48747;50.250;18.848;2022-08-19T02:57:26;22.00;99.90
37356;DHT22;48747;50.250;18.848;2022-08-19T02:59:30;21.90;99.90
37356;DHT22;48747;50.250;18.848;2022-08-19T03:01:35;21.90;99.90
37356;DHT22;48747;50.250;18.848;2022-08-19T03:03:39;21.90;99.90
37356;DHT22;48747;50.250;18.848;2022-08-19T03:05:44;21.90;99.90
37356;DHT22;48747;50.250;18.848;2022-08-19T03:07:49;21.90;99.90
37356;DHT22;48747;50.250;18.848;2022-08-19T03:09:57;22.00;99.90
37356;DHT22;48747;50.250;18.848;2022-08-19T03:12:00;21.90;99.90
37356;DHT22;48747;50.250;18.848;2022-08-19T03:14:06;21.90;99.90
37356;DHT22;48747;50.250;18.848;2022-08-19T03:16:11;21.90;99.90
37356;DHT22;48747;50.250;18.848;2022-08-19T03:18:16;21.90;99.90
37356;DHT22;48747;50.250;18.848;2022-08-19T03:20:21;21.90;99.90
37356;DHT22;48747;50.250;18.848;2022-08-19T03:22:26;21.90;99.90
37356;DHT22;48747;50.250;18.848;2022-08-19T03:24:31;21.90;99.90
37356;DHT22;48747;50.250;18.848;2022-08-19T03:26:45;21.90;99.90
37356;DHT22;48747;50.250;18.848;2022-08-19T03:28:45;21.90;99.90
37356;DHT22;48747;50.250;18.848;2022-08-19T03:31:03;21.80;99.90
37356;DHT22;48747;50.250;18.848;2022-08-19T03:33:10;21.90;99.90
37356;DHT22;48747;50.250;18.848;2022-08-19T03:35:16;21.80;99.90
37356;DHT22;48747;50.250;18.848;2022-08-19T03:37:25;21.80;99.90
37356;DHT22;48747;50.250;18.848;2022-08-19T03:39:26;21.80;99.90
37356;DHT22;48747;50.250;18.848;2022-08-19T03:41:32;21.80;99.90
37356;DHT22;48747;50.250;18.848;2022-08-19T03:43:39;21.80;99.90
37356;DHT22;48747;50.250;18.848;2022-08-19T03:45:43;21.80;99.90
37356;DHT22;48747;50.250;18.848;2022-08-19T03:47:46;21.80;99.90
37356;DHT22;48747;50.250;18.848;2022-08-19T03:54:07;21.80;99.90
37356;DHT22;48747;50.250;18.848;2022-08-19T03:56:13;21.80;99.90
37356;DHT22;48747;50.250;18.848;2022-08-19T03:58:26;21.70;99.90
37356;DHT22;48747;50.250;18.848;2022-08-19T04:00:26;21.70;99.90
37356;DHT22;48747;50.250;18.848;2022-08-19T04:02:31;21.80;99.90
37356;DHT22;48747;50.250;18.848;2022-08-19T04:04:42;21.80;99.90
37356;DHT22;48747;50.250;18.848;2022-08-19T04:06:50;21.70;99.90
37356;DHT22;48747;50.250;18.848;2022-08-19T04:08:58;21.70;99.90
37356;DHT22;48747;50.250;18.848;2022-08-19T04:11:10;21.70;99.90
37356;DHT22;48747;50.250;18.848;2022-08-19T04:13:09;21.70;99.90
37356;DHT22;48747;50.250;18.848;2022-08-19T04:15:20;21.80;99.90
37356;DHT22;48747;50.250;18.848;2022-08-19T04:17:30;21.80;99.90
37356;DHT22;48747;50.250;18.848;2022-08-19T04:19:40;21.80;99.90
37356;DHT22;48747;50.250;18.848;2022-08-19T04:21:47;21.80;99.90
37356;DHT22;48747;50.250;18.848;2022-08-19T04:23:45;21.80;99.90
37356;DHT22;48747;50.250;18.848;2022-08-19T04:25:50;21.90;99.90
37356;DHT22;48747;50.250;18.848;2022-08-19T04:28:00;22.00;99.90
37356;DHT22;48747;50.250;18.848;2022-08-19T04:30:06;22.00;99.90
37356;DHT22;48747;50.250;18.848;2022-08-19T04:32:09;22.10;99.90
37356;DHT22;48747;50.250;18.848;2022-08-19T04:34:14;22.20;99.90
37356;DHT22;48747;50.250;18.848;2022-08-19T04:36:21;22.20;99.90
37356;DHT22;48747;50.250;18.848;2022-08-19T04:38:24;22.30;99.90
37356;DHT22;48747;50.250;18.848;2022-08-19T04:40:32;22.40;99.90
37356;DHT22;48747;50.250;18.848;2022-08-19T04:42:55;22.40;99.90
37356;DHT22;48747;50.250;18.848;2022-08-19T04:44:58;22.40;99.90
37356;DHT22;48747;50.250;18.848;2022-08-19T04:47:06;22.40;99.90
37356;DHT22;48747;50.250;18.848;2022-08-19T04:49:07;22.50;99.90
37356;DHT22;48747;50.250;18.848;2022-08-19T04:51:16;22.60;99.90
37356;DHT22;48747;50.250;18.848;2022-08-19T04:53:17;22.60;99.90
37356;DHT22;48747;50.250;18.848;2022-08-19T04:55:23;22.70;99.90
37356;DHT22;48747;50.250;18.848;2022-08-19T04:57:36;22.80;99.90
37356;DHT22;48747;50.250;18.848;2022-08-19T04:59:47;22.80;99.90
37356;DHT22;48747;50.250;18.848;2022-08-19T05:01:55;22.90;99.90
37356;DHT22;48747;50.250;18.848;2022-08-19T05:03:59;22.90;99.90
37356;DHT22;48747;50.250;18.848;2022-08-19T05:06:05;22.90;99.90
37356;DHT22;48747;50.250;18.848;2022-08-19T05:08:12;22.90;99.90
37356;DHT22;48747;50.250;18.848;2022-08-19T05:10:18;22.80;99.90
37356;DHT22;48747;50.250;18.848;2022-08-19T05:12:20;22.90;99.90
37356;DHT22;48747;50.250;18.848;2022-08-19T05:14:25;22.90;99.90
37356;DHT22;48747;50.250;18.848;2022-08-19T05:16:37;23.00;99.90
37356;DHT22;48747;50.250;18.848;2022-08-19T05:18:34;23.00;99.90
37356;DHT22;48747;50.250;18.848;2022-08-19T05:20:55;23.10;99.90
37356;DHT22;48747;50.250;18.848;2022-08-19T05:23:16;23.20;99.90
37356;DHT22;48747;50.250;18.848;2022-08-19T05:25:21;23.20;99.90
37356;DHT22;48747;50.250;18.848;2022-08-19T05:27:27;23.20;99.90
37356;DHT22;48747;50.250;18.848;2022-08-19T05:29:34;23.20;99.90
37356;DHT22;48747;50.250;18.848;2022-08-19T05:31:40;23.20;99.90
37356;DHT22;48747;50.250;18.848;2022-08-19T05:33:46;23.20;99.90
37356;DHT22;48747;50.250;18.848;2022-08-19T05:35:53;23.30;99.90
37356;DHT22;48747;50.250;18.848;2022-08-19T05:38:09;23.30;99.90
37356;DHT22;48747;50.250;18.848;2022-08-19T05:40:08;23.30;99.90
37356;DHT22;48747;50.250;18.848;2022-08-19T05:42:15;23.30;99.90
37356;DHT22;48747;50.250;18.848;2022-08-19T05:44:19;23.20;99.90
37356;DHT22;48747;50.250;18.848;2022-08-19T05:46:24;23.20;99.90
37356;DHT22;48747;50.250;18.848;2022-08-19T05:48:28;23.30;99.90
37356;DHT22;48747;50.250;18.848;2022-08-19T05:50:35;23.40;99.90
37356;DHT22;48747;50.250;18.848;2022-08-19T05:52:38;23.40;99.90
37356;DHT22;48747;50.250;18.848;2022-08-19T05:54:42;23.40;99.90
37356;DHT22;48747;50.250;18.848;2022-08-19T05:58:55;23.50;99.90
37356;DHT22;48747;50.250;18.848;2022-08-19T06:00:58;23.50;99.90
37356;DHT22;48747;50.250;18.848;2022-08-19T06:03:04;23.50;99.90
37356;DHT22;48747;50.250;18.848;2022-08-19T06:05:09;23.50;99.90
37356;DHT22;48747;50.250;18.848;2022-08-19T06:07:18;23.60;99.90
37356;DHT22;48747;50.250;18.848;2022-08-19T06:09:22;23.70;99.90
37356;DHT22;48747;50.250;18.848;2022-08-19T06:11:51;23.70;99.90
37356;DHT22;48747;50.250;18.848;2022-08-19T06:13:55;23.80;99.90
37356;DHT22;48747;50.250;18.848;2022-08-19T06:15:59;23.90;99.90
37356;DHT22;48747;50.250;18.848;2022-08-19T06:18:04;23.90;99.90
37356;DHT22;48747;50.250;18.848;2022-08-19T06:20:09;23.90;99.90
37356;DHT22;48747;50.250;18.848;2022-08-19T06:22:14;23.90;99.90
37356;DHT22;48747;50.250;18.848;2022-08-19T06:24:21;24.00;99.90
37356;DHT22;48747;50.250;18.848;2022-08-19T06:26:29;24.00;99.90
37356;DHT22;48747;50.250;18.848;2022-08-19T06:28:32;24.00;99.90
37356;DHT22;48747;50.250;18.848;2022-08-19T06:30:36;24.00;99.90
37356;DHT22;48747;50.250;18.848;2022-08-19T06:32:42;23.90;99.90
37356;DHT22;48747;50.250;18.848;2022-08-19T06:34:46;24.00;99.90
37356;DHT22;48747;50.250;18.848;2022-08-19T06:36:52;24.00;99.90
37356;DHT22;48747;50.250;18.848;2022-08-19T07:02:14;25.40;99.90
37356;DHT22;48747;50.250;18.848;2022-08-19T07:04:47;25.50;99.90
37356;DHT22;48747;50.250;18.848;2022-08-19T07:28:11;26.50;99.90
37356;DHT22;48747;50.250;18.848;2022-08-19T07:30:22;26.60;99.90
37356;DHT22;48747;50.250;18.848;2022-08-19T07:34:37;26.90;99.90
37356;DHT22;48747;50.250;18.848;2022-08-19T07:36:46;27.00;99.10
37356;DHT22;48747;50.250;18.848;2022-08-19T09:01:19;28.60;94.00
37356;DHT22;48747;50.250;18.848;2022-08-19T09:03:24;28.60;93.70
37356;DHT22;48747;50.250;18.848;2022-08-19T09:07:47;28.70;93.80
37356;DHT22;48747;50.250;18.848;2022-08-19T09:09:53;29.00;92.50
37356;DHT22;48747;50.250;18.848;2022-08-19T09:14:33;29.40;92.60
37356;DHT22;48747;50.250;18.848;2022-08-19T09:16:52;29.50;92.10
37356;DHT22;48747;50.250;18.848;2022-08-19T09:18:49;29.40;92.00
37356;DHT22;48747;50.250;18.848;2022-08-19T09:20:50;29.50;91.60
37356;DHT22;48747;50.250;18.848;2022-08-19T09:22:57;29.50;91.60
37356;DHT22;48747;50.250;18.848;2022-08-19T09:27:20;29.50;92.70
37356;DHT22;48747;50.250;18.848;2022-08-19T09:53:05;30.00;92.10
37356;DHT22;48747;50.250;18.848;2022-08-19T09:59:34;30.30;91.30
37356;DHT22;48747;50.250;18.848;2022-08-19T10:01:42;30.50;92.10
37356;DHT22;48747;50.250;18.848;2022-08-19T10:06:09;30.90;90.30
37356;DHT22;48747;50.250;18.848;2022-08-19T10:24:57;32.10;79.10
37356;DHT22;48747;50.250;18.848;2022-08-19T10:26:46;32.20;77.20
37356;DHT22;48747;50.250;18.848;2022-08-19T10:28:59;32.20;76.50
37356;DHT22;48747;50.250;18.848;2022-08-19T10:31:05;32.30;75.00
37356;DHT22;48747;50.250;18.848;2022-08-19T10:33:08;32.30;73.40
37356;DHT22;48747;50.250;18.848;2022-08-19T10:35:14;32.10;73.80
37356;DHT22;48747;50.250;18.848;2022-08-19T10:37:19;31.90;74.30
37356;DHT22;48747;50.250;18.848;2022-08-19T10:39:23;31.80;74.10
37356;DHT22;48747;50.250;18.848;2022-08-19T10:41:31;31.70;73.80
37356;DHT22;48747;50.250;18.848;2022-08-19T10:43:36;31.70;73.30
37356;DHT22;48747;50.250;18.848;2022-08-19T10:45:40;31.80;73.60
37356;DHT22;48747;50.250;18.848;2022-08-19T10:47:44;31.70;73.80
37356;DHT22;48747;50.250;18.848;2022-08-19T10:49:50;31.60;73.30
37356;DHT22;48747;50.250;18.848;2022-08-19T10:52:10;31.50;73.50
37356;DHT22;48747;50.250;18.848;2022-08-19T10:56:59;31.60;75.10
37356;DHT22;48747;50.250;18.848;2022-08-19T10:59:00;31.60;73.30
37356;DHT22;48747;50.250;18.848;2022-08-19T11:01:05;31.60;74.20
37356;DHT22;48747;50.250;18.848;2022-08-19T11:03:12;31.60;73.60
37356;DHT22;48747;50.250;18.848;2022-08-19T11:05:26;31.60;72.50
37356;DHT22;48747;50.250;18.848;2022-08-19T11:07:26;31.70;74.70
37356;DHT22;48747;50.250;18.848;2022-08-19T11:09:41;31.80;73.40
37356;DHT22;48747;50.250;18.848;2022-08-19T11:11:50;32.10;74.00
37356;DHT22;48747;50.250;18.848;2022-08-19T11:14:00;32.30;72.50
37356;DHT22;48747;50.250;18.848;2022-08-19T11:18:19;32.70;70.60
37356;DHT22;48747;50.250;18.848;2022-08-19T11:20:21;32.80;70.00
37356;DHT22;48747;50.250;18.848;2022-08-19T11:22:27;32.80;69.50
37356;DHT22;48747;50.250;18.848;2022-08-19T11:27:04;33.30;70.10
37356;DHT22;48747;50.250;18.848;2022-08-19T11:42:51;33.70;67.30
37356;DHT22;48747;50.250;18.848;2022-08-19T11:45:15;33.70;65.60
37356;DHT22;48747;50.250;18.848;2022-08-19T11:51:42;33.50;66.60
37356;DHT22;48747;50.250;18.848;2022-08-19T11:53:54;33.20;68.00
37356;DHT22;48747;50.250;18.848;2022-08-19T11:56:02;32.90;68.30
37356;DHT22;48747;50.250;18.848;2022-08-19T11:58:12;32.70;68.70
37356;DHT22;48747;50.250;18.848;2022-08-19T12:00:32;32.50;69.10
37356;DHT22;48747;50.250;18.848;2022-08-19T12:02:40;32.40;68.00
37356;DHT22;48747;50.250;18.848;2022-08-19T12:11:27;32.30;69.20
37356;DHT22;48747;50.250;18.848;2022-08-19T13:12:09;33.80;65.00
37356;DHT22;48747;50.250;18.848;2022-08-19T13:14:19;33.80;65.40
37356;DHT22;48747;50.250;18.848;2022-08-19T13:16:27;33.90;64.50
37356;DHT22;48747;50.250;18.848;2022-08-19T14:14:42;34.40;61.20
37356;DHT22;48747;50.250;18.848;2022-08-19T14:16:50;34.30;60.70
37356;DHT22;48747;50.250;18.848;2022-08-19T14:18:54;34.30;60.80
37356;DHT22;48747;50.250;18.848;2022-08-19T14:21:11;34.30;60.80
37356;DHT22;48747;50.250;18.848;2022-08-19T14:23:23;34.20;60.80
37356;DHT22;48747;50.250;18.848;2022-08-19T14:25:27;34.30;61.70
37356;DHT22;48747;50.250;18.848;2022-08-19T14:27:37;34.30;62.30
37356;DHT22;48747;50.250;18.848;2022-08-19T14:29:57;34.20;61.50
37356;DHT22;48747;50.250;18.848;2022-08-19T14:32:06;34.10;60.90
37356;DHT22;48747;50.250;18.848;2022-08-19T14:34:13;33.90;62.10
37356;DHT22;48747;50.250;18.848;2022-08-19T14:36:34;33.80;61.80
37356;DHT22;48747;50.250;18.848;2022-08-19T14:39:00;33.60;61.70
37356;DHT22;48747;50.250;18.848;2022-08-19T14:49:33;33.60;63.00
37356;DHT22;48747;50.250;18.848;2022-08-19T14:51:38;33.80;62.60
37356;DHT22;48747;50.250;18.848;2022-08-19T14:53:41;33.80;62.10
37356;DHT22;48747;50.250;18.848;2022-08-19T14:55:46;33.90;62.00
37356;DHT22;48747;50.250;18.848;2022-08-19T14:57:49;34.00;60.90
37356;DHT22;48747;50.250;18.848;2022-08-19T14:59:53;34.00;60.40
37356;DHT22;48747;50.250;18.848;2022-08-19T15:01:56;34.00;60.80
37356;DHT22;48747;50.250;18.848;2022-08-19T15:04:01;34.00;61.90
37356;DHT22;48747;50.250;18.848;2022-08-19T15:06:05;34.00;62.80
37356;DHT22;48747;50.250;18.848;2022-08-19T15:08:08;34.00;61.30
37356;DHT22;48747;50.250;18.848;2022-08-19T15:10:13;33.90;61.90
37356;DHT22;48747;50.250;18.848;2022-08-19T15:12:22;33.90;61.30
37356;DHT22;48747;50.250;18.848;2022-08-19T15:14:21;33.80;62.40
37356;DHT22;48747;50.250;18.848;2022-08-19T15:16:24;33.80;62.10
37356;DHT22;48747;50.250;18.848;2022-08-19T15:18:29;33.60;62.40
37356;DHT22;48747;50.250;18.848;2022-08-19T15:20:37;33.40;62.10
37356;DHT22;48747;50.250;18.848;2022-08-19T15:22:42;33.10;63.50
37356;DHT22;48747;50.250;18.848;2022-08-19T15:24:45;33.00;65.10
37356;DHT22;48747;50.250;18.848;2022-08-19T15:26:52;32.70;65.60
37356;DHT22;48747;50.250;18.848;2022-08-19T15:28:57;32.50;66.60
37356;DHT22;48747;50.250;18.848;2022-08-19T15:31:01;32.40;67.30
37356;DHT22;48747;50.250;18.848;2022-08-19T15:33:06;32.20;66.50
37356;DHT22;48747;50.250;18.848;2022-08-19T15:35:12;32.10;67.40
37356;DHT22;48747;50.250;18.848;2022-08-19T15:37:16;32.00;67.30
37356;DHT22;48747;50.250;18.848;2022-08-19T15:39:20;31.80;67.80
37356;DHT22;48747;50.250;18.848;2022-08-19T15:41:36;31.70;68.70
37356;DHT22;48747;50.250;18.848;2022-08-19T15:56:39;30.90;70.20
37356;DHT22;48747;50.250;18.848;2022-08-19T16:04:15;30.60;71.90
37356;DHT22;48747;50.250;18.848;2022-08-19T16:14:01;30.20;76.20
37356;DHT22;48747;50.250;18.848;2022-08-19T16:15:53;30.00;75.50
37356;DHT22;48747;50.250;18.848;2022-08-19T16:18:16;30.00;74.30
37356;DHT22;48747;50.250;18.848;2022-08-19T16:20:23;29.90;74.50
37356;DHT22;48747;50.250;18.848;2022-08-19T16:22:28;29.90;74.10
37356;DHT22;48747;50.250;18.848;2022-08-19T16:24:32;29.90;74.40
37356;DHT22;48747;50.250;18.848;2022-08-19T16:26:35;29.80;75.60
37356;DHT22;48747;50.250;18.848;2022-08-19T16:28:39;29.70;76.50
37356;DHT22;48747;50.250;18.848;2022-08-19T16:30:45;29.60;76.80
37356;DHT22;48747;50.250;18.848;2022-08-19T16:32:53;29.60;77.00
37356;DHT22;48747;50.250;18.848;2022-08-19T16:34:54;29.60;77.90
37356;DHT22;48747;50.250;18.848;2022-08-19T16:37:03;29.60;78.20
37356;DHT22;48747;50.250;18.848;2022-08-19T16:39:11;29.60;76.50
37356;DHT22;48747;50.250;18.848;2022-08-19T16:41:17;29.50;76.70
37356;DHT22;48747;50.250;18.848;2022-08-19T16:43:21;29.50;75.90
37356;DHT22;48747;50.250;18.848;2022-08-19T16:45:26;29.50;76.80
37356;DHT22;48747;50.250;18.848;2022-08-19T16:47:29;29.40;78.50
37356;DHT22;48747;50.250;18.848;2022-08-19T16:49:32;29.30;79.70
37356;DHT22;48747;50.250;18.848;2022-08-19T16:51:42;29.30;79.20
37356;DHT22;48747;50.250;18.848;2022-08-19T16:53:45;29.20;79.10
37356;DHT22;48747;50.250;18.848;2022-08-19T16:55:49;28.90;80.00
37356;DHT22;48747;50.250;18.848;2022-08-19T16:57:56;28.80;81.00
37356;DHT22;48747;50.250;18.848;2022-08-19T17:00:01;28.60;81.50
37356;DHT22;48747;50.250;18.848;2022-08-19T17:02:05;28.50;81.80
37356;DHT22;48747;50.250;18.848;2022-08-19T17:04:23;28.50;82.00
37356;DHT22;48747;50.250;18.848;2022-08-19T17:06:21;28.40;82.10
37356;DHT22;48747;50.250;18.848;2022-08-19T17:08:30;28.30;83.00
37356;DHT22;48747;50.250;18.848;2022-08-19T17:10:36;28.20;84.10
37356;DHT22;48747;50.250;18.848;2022-08-19T17:12:41;28.20;84.80
37356;DHT22;48747;50.250;18.848;2022-08-19T17:14:50;28.10;85.70
37356;DHT22;48747;50.250;18.848;2022-08-19T17:16:57;28.00;86.60
37356;DHT22;48747;50.250;18.848;2022-08-19T17:19:12;28.00;87.20
37356;DHT22;48747;50.250;18.848;2022-08-19T17:23:25;27.70;86.70
37356;DHT22;48747;50.250;18.848;2022-08-19T17:25:35;27.40;88.00
37356;DHT22;48747;50.250;18.848;2022-08-19T17:27:40;27.20;88.80
37356;DHT22;48747;50.250;18.848;2022-08-19T17:29:43;26.90;90.00
37356;DHT22;48747;50.250;18.848;2022-08-19T17:31:48;26.70;90.70
37356;DHT22;48747;50.250;18.848;2022-08-19T17:34:09;26.40;93.10
37356;DHT22;48747;50.250;18.848;2022-08-19T17:36:04;26.20;96.40
37356;DHT22;48747;50.250;18.848;2022-08-19T17:38:14;25.80;99.90
37356;DHT22;48747;50.250;18.848;2022-08-19T17:40:17;25.50;99.90
37356;DHT22;48747;50.250;18.848;2022-08-19T17:42:21;25.10;99.90
37356;DHT22;48747;50.250;18.848;2022-08-19T17:44:28;24.90;99.90
37356;DHT22;48747;50.250;18.848;2022-08-19T17:46:29;24.70;99.90
37356;DHT22;48747;50.250;18.848;2022-08-19T17:50:43;24.40;99.90
37356;DHT22;48747;50.250;18.848;2022-08-19T17:52:48;24.00;99.90
37356;DHT22;48747;50.250;18.848;2022-08-19T17:54:53;23.90;99.90
37356;DHT22;48747;50.250;18.848;2022-08-19T17:56:58;23.90;99.90
37356;DHT22;48747;50.250;18.848;2022-08-19T17:59:01;24.10;99.90
37356;DHT22;48747;50.250;18.848;2022-08-19T18:01:04;24.00;99.90
37356;DHT22;48747;50.250;18.848;2022-08-19T18:03:09;24.00;99.90
37356;DHT22;48747;50.250;18.848;2022-08-19T18:05:12;23.70;99.90
37356;DHT22;48747;50.250;18.848;2022-08-19T18:07:16;23.40;99.90
37356;DHT22;48747;50.250;18.848;2022-08-19T18:09:26;23.20;99.90
37356;DHT22;48747;50.250;18.848;2022-08-19T18:11:29;23.00;99.90
37356;DHT22;48747;50.250;18.848;2022-08-19T18:13:33;22.70;99.90
37356;DHT22;48747;50.250;18.848;2022-08-19T18:15:36;22.60;99.90
37356;DHT22;48747;50.250;18.848;2022-08-19T18:17:39;22.50;99.90
37356;DHT22;48747;50.250;18.848;2022-08-19T18:19:44;22.30;99.90
37356;DHT22;48747;50.250;18.848;2022-08-19T18:21:48;22.20;99.90
37356;DHT22;48747;50.250;18.848;2022-08-19T18:23:51;22.00;99.90
37356;DHT22;48747;50.250;18.848;2022-08-19T18:25:54;22.00;99.90
37356;DHT22;48747;50.250;18.848;2022-08-19T18:28:06;22.20;99.90
37356;DHT22;48747;50.250;18.848;2022-08-19T18:30:09;22.50;99.90
37356;DHT22;48747;50.250;18.848;2022-08-19T18:32:16;22.70;99.90
37356;DHT22;48747;50.250;18.848;2022-08-19T18:34:20;22.90;99.90
37356;DHT22;48747;50.250;18.848;2022-08-19T18:36:23;22.80;99.90
37356;DHT22;48747;50.250;18.848;2022-08-19T18:38:30;22.80;99.90
37356;DHT22;48747;50.250;18.848;2022-08-19T18:40:52;22.80;99.90
37356;DHT22;48747;50.250;18.848;2022-08-19T18:43:16;22.80;99.90
37356;DHT22;48747;50.250;18.848;2022-08-19T18:45:38;22.70;99.90
37356;DHT22;48747;50.250;18.848;2022-08-19T18:48:01;22.60;99.90
37356;DHT22;48747;50.250;18.848;2022-08-19T18:50:23;22.60;99.90
37356;DHT22;48747;50.250;18.848;2022-08-19T18:52:33;22.60;99.90
37356;DHT22;48747;50.250;18.848;2022-08-19T18:54:34;22.60;99.90
37356;DHT22;48747;50.250;18.848;2022-08-19T18:56:37;22.70;99.90
37356;DHT22;48747;50.250;18.848;2022-08-19T18:58:51;22.50;99.90
37356;DHT22;48747;50.250;18.848;2022-08-19T19:03:08;22.50;99.90
37356;DHT22;48747;50.250;18.848;2022-08-19T19:05:16;22.50;99.90
37356;DHT22;48747;50.250;18.848;2022-08-19T19:07:19;22.50;99.90
37356;DHT22;48747;50.250;18.848;2022-08-19T19:09:39;22.70;99.90
37356;DHT22;48747;50.250;18.848;2022-08-19T19:13:42;23.00;99.90
37356;DHT22;48747;50.250;18.848;2022-08-19T19:15:54;22.90;99.90
37356;DHT22;48747;50.250;18.848;2022-08-19T19:22:42;22.50;99.90
37356;DHT22;48747;50.250;18.848;2022-08-19T19:25:01;22.30;99.90
37356;DHT22;48747;50.250;18.848;2022-08-19T19:32:18;22.20;99.90
37356;DHT22;48747;50.250;18.848;2022-08-19T19:34:18;22.10;99.90